Time;durP1;ratioP1;P1;durP2;ratioP2;P2;SDS_P1;SDS_P2;PMS_P1;PMS_P2;Temp;Humidity;BMP_temperature;BMP_pressure;BME280_temperature;BME280_humidity;BME280_pressure;Samples;Min_cycle;Max_cycle;Signal;HPM_P1;HPM_P2
2021/12/03 00:02:23;;;;;;;13.97;8.43;;;;;;;-9.19;82.55;99441.13;4897803;29;20036;-63
2021/12/03 00:04:49;;;;;;;20.83;9.33;;;;;;;-9.21;82.49;99441.19;4897986;29;20119;-62
2021/12/03 00:07:14;;;;;;;16.20;9.73;;;;;;;-9.56;82.42;99380.09;4897524;29;20048;-63
2021/12/03 00:09:40;;;;;;;18.03;9.13;;;;;;;-9.20;82.27;99445.44;4898765;29;20042;-64
2021/12/03 00:12:06;;;;;;;15.37;10.00;;;;;;;-9.34;82.36;99419.44;4897821;29;20119;-64
2021/12/03 00:14:33;;;;;;;25.23;9.82;;;;;;;-9.25;82.31;99442.25;4897549;29;20032;-62
2021/12/03 00:16:59;;;;;;;15.27;10.27;;;;;;;-9.30;81.77;99431.28;4880806;29;20473;-62
2021/12/03 00:19:25;;;;;;;26.02;13.07;;;;;;;-9.24;80.98;99456.81;4897651;29;20068;-63
2021/12/03 00:21:51;;;;;;;14.03;9.27;;;;;;;-9.40;82.10;99432.63;4897368;29;20088;-62
2021/12/03 00:24:16;;;;;;;19.27;10.67;;;;;;;-9.31;81.74;99462.28;4898083;29;20049;-65
2021/12/03 00:26:42;;;;;;;18.43;9.63;;;;;;;-9.43;82.37;99437.91;4897395;29;20119;-64
2021/12/03 00:29:08;;;;;;;17.00;11.47;;;;;;;-9.45;82.15;99434.59;4897214;29;20402;-63
2021/12/03 00:31:34;;;;;;;20.00;10.25;;;;;;;-9.37;81.90;99442.78;4897193;29;20044;-61
2021/12/03 00:34:00;;;;;;;16.87;11.43;;;;;;;-9.34;81.43;99450.38;4897322;29;20040;-64
2021/12/03 00:36:27;;;;;;;22.57;11.37;;;;;;;-9.45;81.50;99444.88;4897262;29;20047;-63
2021/12/03 00:38:56;;;;;;;15.52;9.43;;;;;;;-9.49;82.16;99427.91;4885305;29;20792;-63
2021/12/03 00:41:22;;;;;;;14.32;10.60;;;;;;;-9.48;81.20;99432.16;4897261;29;20477;-64
2021/12/03 00:43:52;;;;;;;26.00;10.13;;;;;;;-9.36;82.10;99459.94;4900293;29;20037;-64
2021/12/03 00:46:18;;;;;;;25.80;11.45;;;;;;;-9.58;81.73;99423.13;4897059;29;20351;-62
2021/12/03 00:48:46;;;;;;;15.77;10.32;;;;;;;-9.54;81.72;99424.66;4897044;29;20052;-62
2021/12/03 00:51:12;;;;;;;12.55;8.68;;;;;;;-9.49;81.71;99436.47;4896961;29;20044;-64
2021/12/03 00:53:38;;;;;;;17.50;9.35;;;;;;;-9.45;80.42;99455.19;4896969;29;20385;-60
2021/12/03 00:56:29;;;;;;;16.35;8.98;;;;;;;-9.71;81.93;99422.88;4897360;29;20085;-62
2021/12/03 00:58:56;;;;;;;17.05;9.05;;;;;;;-9.47;81.92;99457.00;4896470;29;20051;-62
2021/12/03 01:01:21;;;;;;;15.47;9.83;;;;;;;-9.49;81.75;99448.50;4896938;29;20045;-63
2021/12/03 01:03:48;;;;;;;16.30;9.70;;;;;;;-9.41;81.81;99455.00;4896670;29;20045;-61
2021/12/03 01:06:13;;;;;;;17.75;10.85;;;;;;;-9.43;81.72;99445.66;4896582;29;20048;-63
2021/12/03 01:08:39;;;;;;;19.10;9.50;;;;;;;-9.51;81.15;99437.44;4895773;29;20040;-63
2021/12/03 01:11:06;;;;;;;16.13;9.57;;;;;;;-9.38;81.86;99461.75;4896805;29;20041;-62
2021/12/03 01:13:33;;;;;;;14.65;9.15;;;;;;;-9.61;80.34;99431.84;4896579;29;20524;-62
2021/12/03 01:15:59;;;;;;;11.85;7.82;;;;;;;-9.53;81.41;99446.97;4896574;29;20044;-64
2021/12/03 01:18:25;;;;;;;17.03;9.60;;;;;;;-9.44;81.74;99469.75;4896530;29;20517;-64
2021/12/03 01:20:51;;;;;;;16.57;9.27;;;;;;;-9.48;81.51;99455.34;4896454;29;20052;-61
2021/12/03 01:23:17;;;;;;;15.90;9.90;;;;;;;-9.49;81.57;99451.09;4896683;29;20051;-65
2021/12/03 01:25:43;;;;;;;12.57;7.80;;;;;;;-9.40;81.51;99469.53;4879973;29;20105;-63
2021/12/03 01:28:08;;;;;;;13.33;7.37;;;;;;;-9.62;81.20;99447.38;4896879;29;20040;-64
2021/12/03 01:30:35;;;;;;;12.03;7.53;;;;;;;-9.39;81.20;99491.00;4897016;29;20493;-63
2021/12/03 01:33:05;;;;;;;14.93;9.65;;;;;;;-9.40;81.34;99489.34;4896517;29;20511;-63
2021/12/03 01:35:30;;;;;;;13.00;7.18;;;;;;;-9.45;81.13;99480.97;4897272;29;20041;-64
2021/12/03 01:37:56;;;;;;;11.37;7.83;;;;;;;-9.44;80.69;99498.94;4897078;29;20157;-63
2021/12/03 01:40:24;;;;;;;13.27;8.00;;;;;;;-9.50;81.16;99488.91;4896883;29;20097;-64
2021/12/03 01:42:50;;;;;;;12.70;7.07;;;;;;;-9.47;80.98;99493.94;4896809;29;20036;-62
2021/12/03 01:45:23;;;;;;;14.07;8.35;;;;;;;-9.52;81.33;99489.91;4895795;29;20064;-63
2021/12/03 01:47:50;;;;;;;11.75;7.85;;;;;;;-9.50;80.89;99499.22;4895576;29;20052;-62
2021/12/03 01:50:22;;;;;;;10.55;6.53;;;;;;;-9.53;80.16;99494.22;4895606;29;20041;-63
2021/12/03 01:52:47;;;;;;;11.40;7.65;;;;;;;-9.49;80.16;99505.22;4895664;29;20060;-62
2021/12/03 01:55:13;;;;;;;14.03;8.10;;;;;;;-9.46;80.26;99499.94;4895546;29;20105;-62
2021/12/03 01:57:39;;;;;;;12.18;8.13;;;;;;;-9.45;79.82;99496.44;4879486;29;20052;-62
2021/12/03 02:00:13;;;;;;;10.25;7.13;;;;;;;-9.37;79.77;99499.50;4895396;29;20036;-62
2021/12/03 02:02:39;;;;;;;15.63;10.82;;;;;;;-9.32;79.20;99494.97;4878658;29;20044;-63
2021/12/03 02:05:05;;;;;;;16.00;10.37;;;;;;;-9.44;78.76;99487.81;4895345;29;20040;-63
2021/12/03 02:07:31;;;;;;;8.80;6.82;;;;;;;-9.38;79.20;99497.84;4895417;29;20081;-62
2021/12/03 02:09:57;;;;;;;13.23;6.80;;;;;;;-9.45;79.12;99502.44;4878753;29;20076;-63
2021/12/03 02:12:23;;;;;;;9.87;7.27;;;;;;;-9.47;78.87;99498.25;4895671;29;20104;-63
2021/12/03 02:14:48;;;;;;;11.77;6.77;;;;;;;-9.58;79.28;99479.84;4895329;29;20501;-62
2021/12/03 02:17:14;;;;;;;10.77;7.67;;;;;;;-9.51;79.28;99491.56;4895220;29;20462;-64
2021/12/03 02:19:40;;;;;;;10.50;7.97;;;;;;;-9.44;78.70;99505.84;4897289;29;20072;-64
2021/12/03 02:22:05;;;;;;;17.13;11.65;;;;;;;-9.56;79.65;99484.00;4898502;29;20040;-65
2021/12/03 02:24:32;;;;;;;12.10;7.37;;;;;;;-9.48;78.83;99492.25;4881744;29;20097;-65
2021/12/03 02:26:58;;;;;;;13.45;7.38;;;;;;;-9.56;79.03;99478.03;4898885;29;20461;-68
2021/12/03 02:29:23;;;;;;;8.40;6.13;;;;;;;-9.39;78.97;99499.56;4882424;29;20082;-63
2021/12/03 02:31:49;;;;;;;8.30;6.43;;;;;;;-9.37;78.46;99500.34;4898427;29;20495;-64
2021/12/03 02:34:15;;;;;;;9.73;6.50;;;;;;;-9.46;77.88;99487.03;4898135;29;20067;-64
2021/12/03 02:36:40;;;;;;;7.07;6.33;;;;;;;-9.35;78.12;99502.84;4881416;29;20071;-64
2021/12/03 02:39:06;;;;;;;9.03;6.57;;;;;;;-9.43;77.82;99503.19;4898080;29;20037;-63
2021/12/03 02:41:31;;;;;;;9.53;5.80;;;;;;;-9.34;78.09;99514.84;4898396;29;20043;-62
2021/12/03 02:43:57;;;;;;;8.97;6.53;;;;;;;-9.43;78.11;99504.94;4898125;29;20093;-63
2021/12/03 02:46:23;;;;;;;9.10;6.10;;;;;;;-9.47;77.92;99503.41;4837440;29;1314186;-64
2021/12/03 02:48:50;;;;;;;9.90;5.53;;;;;;;-9.49;78.40;99506.06;4899282;29;20063;-63
2021/12/03 02:51:15;;;;;;;6.20;5.33;;;;;;;-9.56;78.54;99503.78;4882042;29;20563;-62
2021/12/03 02:53:41;;;;;;;10.13;6.03;;;;;;;-9.64;78.75;99487.84;4898767;29;20036;-62
2021/12/03 02:56:07;;;;;;;7.00;6.13;;;;;;;-9.60;78.68;99510.81;4882105;29;20036;-62
2021/12/03 02:58:33;;;;;;;8.23;6.38;;;;;;;-9.56;79.46;99514.94;4899073;29;20537;-64
2021/12/03 03:01:00;;;;;;;8.67;6.20;;;;;;;-9.57;79.53;99518.41;4898634;29;20037;-62
2021/12/03 03:03:26;;;;;;;12.25;7.10;;;;;;;-9.85;79.86;99472.41;4898803;29;20036;-62
2021/12/03 03:06:00;;;;;;;9.30;6.43;;;;;;;-9.66;79.69;99508.53;4898679;29;20429;-64
2021/12/03 03:08:26;;;;;;;9.05;7.38;;;;;;;-9.65;79.58;99517.91;4898724;29;20044;-65
2021/12/03 03:10:54;;;;;;;7.57;6.82;;;;;;;-9.69;80.46;99509.50;4898586;29;20442;-64
2021/12/03 03:13:19;;;;;;;9.02;6.22;;;;;;;-9.77;80.42;99496.13;4898686;29;20044;-63
2021/12/03 03:15:45;;;;;;;6.27;5.60;;;;;;;-9.71;80.28;99498.41;4898274;29;20181;-62
2021/12/03 03:18:17;;;;;;;7.33;6.60;;;;;;;-9.71;80.11;99510.47;4898585;29;20048;-61
2021/12/03 03:20:44;;;;;;;9.75;6.65;;;;;;;-9.66;80.01;99510.25;4898196;29;20413;-62
2021/12/03 03:23:12;;;;;;;7.63;5.13;;;;;;;-9.74;79.88;99498.56;4898385;29;20071;-63
2021/12/03 03:25:39;;;;;;;5.57;5.07;;;;;;;-9.84;79.90;99479.22;4898202;29;20119;-61
2021/12/03 03:28:06;;;;;;;9.90;6.78;;;;;;;-9.68;79.82;99507.75;4898777;29;20497;-63
2021/12/03 03:30:32;;;;;;;8.63;5.60;;;;;;;-9.75;79.44;99484.00;4897982;29;20040;-60
2021/12/03 03:32:58;;;;;;;7.65;6.78;;;;;;;-9.61;79.77;99498.00;4899530;29;20040;-63
2021/12/03 03:35:24;;;;;;;9.85;7.60;;;;;;;-9.67;79.61;99491.38;4899273;29;20093;-62
2021/12/03 03:37:49;;;;;;;7.70;6.70;;;;;;;-9.69;79.31;99499.19;4898506;29;20512;-64
2021/12/03 03:40:16;;;;;;;9.87;7.93;;;;;;;-9.86;79.84;99463.00;4898272;29;20036;-64
2021/12/03 03:42:42;;;;;;;9.50;6.57;;;;;;;-9.77;79.76;99470.34;4898224;29;20037;-62
2021/12/03 03:45:15;;;;;;;7.68;6.95;;;;;;;-9.82;80.04;99459.41;4897759;29;20060;-62
2021/12/03 03:47:43;;;;;;;7.28;6.53;;;;;;;-9.71;79.62;99479.53;4898142;29;20045;-63
2021/12/03 03:50:09;;;;;;;9.07;6.63;;;;;;;-9.86;80.23;99475.88;4866175;29;20036;-65
2021/12/03 03:52:36;;;;;;;6.80;5.35;;;;;;;-9.88;80.12;99461.41;4898406;29;20052;-63
2021/12/03 03:55:03;;;;;;;9.13;6.72;;;;;;;-9.74;80.28;99480.53;4881598;29;20573;-64
2021/12/03 03:57:30;;;;;;;8.48;5.95;;;;;;;-9.68;79.67;99487.13;4898120;29;20032;-61
2021/12/03 03:59:56;;;;;;;8.50;5.47;;;;;;;-10.10;79.54;99415.16;4898655;29;20053;-64
2021/12/03 04:02:22;;;;;;;11.77;5.87;;;;;;;-9.80;79.74;99465.34;4882140;29;20051;-61
2021/12/03 04:04:49;;;;;;;7.03;5.32;;;;;;;-9.60;79.49;99491.94;4898631;29;20520;-61
2021/12/03 04:07:14;;;;;;;9.82;5.57;;;;;;;-9.68;79.71;99474.25;4881669;29;20043;-63
2021/12/03 04:09:40;;;;;;;6.20;5.70;;;;;;;-9.61;79.38;99487.69;4899232;29;20037;-65
2021/12/03 04:12:06;;;;;;;5.37;4.80;;;;;;;-9.69;79.47;99473.41;4898977;29;20052;-63
2021/12/03 04:14:32;;;;;;;7.55;5.85;;;;;;;-9.63;79.34;99482.63;4898162;29;20076;-63
2021/12/03 04:16:57;;;;;;;7.73;5.60;;;;;;;-9.78;79.48;99453.22;4899507;29;20066;-68
2021/12/03 04:19:23;;;;;;;5.03;4.53;;;;;;;-9.63;79.10;99476.63;4866874;29;20428;-65
2021/12/03 04:21:49;;;;;;;9.27;5.73;;;;;;;-9.54;78.82;99492.53;4897912;29;20032;-63
2021/12/03 04:24:15;;;;;;;5.95;4.80;;;;;;;-9.70;78.38;99471.75;4880588;29;20462;-65
2021/12/03 04:26:42;;;;;;;6.07;4.90;;;;;;;-9.77;78.08;99472.94;4897027;29;20060;-62
2021/12/03 04:29:07;;;;;;;9.48;4.65;;;;;;;-9.85;78.28;99459.53;4880984;29;20048;-71
2021/12/03 04:31:33;;;;;;;9.17;6.33;;;;;;;-9.68;77.74;99508.59;4897910;29;20036;-66
2021/12/03 04:33:59;;;;;;;7.90;5.43;;;;;;;-9.72;78.48;99489.00;4880567;29;20080;-67
2021/12/03 04:36:25;;;;;;;6.60;5.67;;;;;;;-9.83;78.18;99480.94;4896964;29;20040;-63
2021/12/03 04:38:51;;;;;;;6.07;5.20;;;;;;;-9.96;77.66;99469.47;4908689;29;20166;-64
2021/12/03 04:41:20;;;;;;;6.57;5.78;;;;;;;-9.81;77.97;99504.88;4905129;29;20119;-69
2021/12/03 04:43:45;;;;;;;8.73;5.00;;;;;;;-9.94;77.97;99490.84;4897364;29;20135;-64
2021/12/03 04:46:11;;;;;;;9.37;7.60;;;;;;;-9.83;78.13;99501.53;4897143;29;20143;-62
2021/12/03 04:48:37;;;;;;;9.20;5.73;;;;;;;-9.90;78.33;99494.13;4896790;29;20051;-63
2021/12/03 04:51:02;;;;;;;11.70;5.93;;;;;;;-9.99;78.03;99474.75;4897406;29;20592;-61
2021/12/03 04:53:28;;;;;;;6.63;5.37;;;;;;;-9.88;78.01;99490.56;4897096;29;20032;-59
2021/12/03 04:55:54;;;;;;;7.03;5.80;;;;;;;-9.87;77.78;99499.97;4880023;29;20040;-60
2021/12/03 04:58:20;;;;;;;6.77;5.57;;;;;;;-10.08;77.85;99454.56;4896782;29;20520;-60
2021/12/03 05:01:10;;;;;;;7.32;5.63;;;;;;;-10.24;78.06;99436.34;4897519;29;20055;-61
2021/12/03 05:03:37;;;;;;;6.93;4.87;;;;;;;-9.78;77.73;99524.53;4897915;29;20040;-60
2021/12/03 05:06:04;;;;;;;8.07;5.15;;;;;;;-9.83;78.01;99522.16;4897020;29;20041;-60
2021/12/03 05:08:30;;;;;;;6.75;5.47;;;;;;;-9.85;78.08;99531.66;4897112;29;20043;-60
2021/12/03 05:10:57;;;;;;;8.57;5.13;;;;;;;-9.96;78.25;99502.94;4896864;29;20184;-59
2021/12/03 05:13:29;;;;;;;8.50;5.47;;;;;;;-9.86;78.26;99522.25;4896867;29;20040;-60
2021/12/03 05:15:56;;;;;;;7.75;6.57;;;;;;;-10.06;78.24;99484.47;4897878;29;20114;-62
2021/12/03 05:18:23;;;;;;;7.32;5.38;;;;;;;-9.84;77.44;99530.75;4897228;29;20036;-61
2021/12/03 05:20:52;;;;;;;10.07;6.28;;;;;;;-9.90;77.88;99515.56;4880532;29;20413;-59
2021/12/03 05:23:18;;;;;;;7.75;5.60;;;;;;;-10.02;77.51;99505.78;4896964;29;20033;-60
2021/12/03 05:25:44;;;;;;;9.63;6.35;;;;;;;-10.14;77.96;99498.56;4896912;29;20097;-59
2021/12/03 05:28:11;;;;;;;7.15;6.45;;;;;;;-10.02;78.24;99534.13;4880235;29;20045;-59
2021/12/03 05:30:37;;;;;;;6.47;5.85;;;;;;;-10.02;78.06;99541.84;4896977;29;20059;-60
2021/12/03 05:33:04;;;;;;;7.68;6.97;;;;;;;-10.11;78.03;99514.75;4896526;29;20419;-60
2021/12/03 05:35:29;;;;;;;6.88;5.93;;;;;;;-10.03;78.07;99541.00;4896542;29;20037;-59
2021/12/03 05:37:55;;;;;;;6.57;5.87;;;;;;;-10.01;77.91;99528.06;4896795;29;20561;-57
2021/12/03 05:40:21;;;;;;;9.37;6.50;;;;;;;-10.39;77.31;99471.31;4896748;29;20044;-59
2021/12/03 05:42:47;;;;;;;6.93;5.27;;;;;;;-9.99;77.74;99531.41;4896654;29;20127;-61
2021/12/03 05:45:19;;;;;;;8.02;7.07;;;;;;;-10.08;77.81;99526.66;4896856;29;20056;-60
2021/12/03 05:47:46;;;;;;;9.82;7.28;;;;;;;-10.03;77.79;99527.28;4896843;29;20509;-60
2021/12/03 05:50:13;;;;;;;11.40;6.45;;;;;;;-10.22;77.60;99498.91;4896538;29;20127;-58
2021/12/03 05:52:39;;;;;;;8.00;6.93;;;;;;;-10.05;77.51;99541.97;4896567;29;20123;-56
2021/12/03 05:55:06;;;;;;;8.73;6.83;;;;;;;-10.03;77.75;99553.03;4882820;29;20060;-62
2021/12/03 05:57:32;;;;;;;8.15;7.45;;;;;;;-10.05;77.70;99552.28;4900237;29;20528;-59
2021/12/03 05:59:58;;;;;;;9.00;6.17;;;;;;;-10.21;77.90;99515.19;4883122;29;20036;-60
2021/12/03 06:02:24;;;;;;;8.77;6.37;;;;;;;-9.95;77.66;99552.72;4900083;29;20060;-61
2021/12/03 06:04:49;;;;;;;7.80;6.30;;;;;;;-10.01;78.13;99540.94;4882962;29;20036;-57
2021/12/03 06:07:16;;;;;;;6.82;6.03;;;;;;;-9.92;77.87;99550.00;4900014;29;20055;-60
2021/12/03 06:09:42;;;;;;;9.27;5.93;;;;;;;-10.02;77.66;99536.69;4899659;29;20417;-59
2021/12/03 06:12:09;;;;;;;6.85;5.18;;;;;;;-9.95;77.94;99545.00;4899798;29;20040;-59
2021/12/03 06:14:35;;;;;;;6.68;5.95;;;;;;;-10.09;77.86;99530.13;4899706;29;20512;-59
2021/12/03 06:17:01;;;;;;;6.22;5.60;;;;;;;-9.98;78.18;99545.97;4883423;29;20044;-61
2021/12/03 06:19:27;;;;;;;7.30;5.95;;;;;;;-10.08;77.96;99548.09;4883412;29;20032;-58
2021/12/03 06:21:53;;;;;;;12.27;5.73;;;;;;;-10.01;78.33;99549.50;4899901;29;20059;-59
2021/12/03 06:24:18;;;;;;;8.50;6.33;;;;;;;-10.04;78.55;99546.22;4900321;29;20037;-60
2021/12/03 06:26:44;;;;;;;6.70;5.67;;;;;;;-10.19;78.46;99531.38;4899925;29;20036;-62
2021/12/03 06:29:10;;;;;;;10.23;6.13;;;;;;;-10.03;78.96;99553.03;4899592;29;20047;-59
2021/12/03 06:31:36;;;;;;;8.03;6.30;;;;;;;-10.09;78.54;99553.28;4900780;29;20037;-59
2021/12/03 06:34:02;;;;;;;8.85;6.40;;;;;;;-10.02;78.55;99572.75;4900788;29;20047;-59
2021/12/03 06:36:27;;;;;;;7.50;5.93;;;;;;;-10.21;78.38;99540.94;4901878;29;20111;-57
2021/12/03 06:38:53;;;;;;;15.00;7.50;;;;;;;-10.17;78.06;99538.13;4884887;29;20059;-58
2021/12/03 06:41:19;;;;;;;14.33;8.77;;;;;;;-10.22;78.27;99527.22;4902130;29;20040;-57
2021/12/03 06:43:44;;;;;;;11.03;8.37;;;;;;;-10.14;78.68;99539.75;4902829;29;20073;-57
2021/12/03 06:46:11;;;;;;;11.57;7.47;;;;;;;-10.46;78.87;99493.03;4902389;29;20067;-61
2021/12/03 06:48:40;;;;;;;9.68;7.43;;;;;;;-10.07;78.59;99564.38;4883718;29;20135;-62
2021/12/03 06:51:05;;;;;;;7.55;6.82;;;;;;;-10.14;78.78;99544.91;4901526;29;20080;-64
2021/12/03 06:53:41;;;;;;;10.43;8.57;;;;;;;-10.01;79.01;99553.81;4901909;29;20043;-61
2021/12/03 06:56:09;;;;;;;9.57;7.07;;;;;;;-10.02;79.09;99562.44;4887425;29;20046;-61
2021/12/03 06:58:35;;;;;;;10.73;7.15;;;;;;;-10.38;78.82;99482.44;4862270;29;20029;-59
2021/12/03 07:01:01;;;;;;;14.27;7.30;;;;;;;-9.89;78.98;99555.03;4882198;29;20045;-58
2021/12/03 07:03:28;;;;;;;9.63;6.85;;;;;;;-10.01;78.77;99535.78;4898899;29;20113;-58
2021/12/03 07:05:54;;;;;;;7.00;6.23;;;;;;;-9.91;79.05;99536.22;4898940;29;20446;-59
2021/12/03 07:08:19;;;;;;;10.47;6.50;;;;;;;-9.94;78.43;99529.47;4898678;29;20041;-61
2021/12/03 07:10:45;;;;;;;8.77;6.27;;;;;;;-9.85;78.19;99544.53;4882250;29;20037;-60
2021/12/03 07:13:11;;;;;;;6.50;5.13;;;;;;;-9.77;78.01;99547.63;4898532;29;20047;-62
2021/12/03 07:15:38;;;;;;;8.07;6.57;;;;;;;-9.79;77.78;99530.56;4881550;29;20073;-61
2021/12/03 07:18:04;;;;;;;7.57;6.50;;;;;;;-9.68;77.63;99542.09;4899238;29;20044;-72
2021/12/03 07:20:29;;;;;;;7.70;6.20;;;;;;;-9.79;77.70;99518.53;4898849;29;20412;-65
2021/12/03 07:22:55;;;;;;;5.50;5.00;;;;;;;-9.58;77.50;99541.69;4898629;29;20280;-67
2021/12/03 07:25:22;;;;;;;7.65;5.88;;;;;;;-9.61;77.48;99544.41;4899346;29;20116;-69
2021/12/03 07:27:47;;;;;;;5.10;4.50;;;;;;;-10.03;77.09;99470.63;4882230;29;20029;-67
2021/12/03 07:30:15;;;;;;;8.40;4.30;;;;;;;-9.44;76.99;99554.81;4897860;29;20055;-64
2021/12/03 07:32:41;;;;;;;6.00;4.38;;;;;;;-9.54;76.59;99532.91;4899194;29;20084;-63
2021/12/03 07:35:08;;;;;;;5.70;4.32;;;;;;;-9.43;76.92;99551.34;4881365;29;20048;-64
2021/12/03 07:37:38;;;;;;;5.80;4.97;;;;;;;-9.40;76.71;99551.19;4880669;29;20053;-65
2021/12/03 07:40:05;;;;;;;5.97;5.32;;;;;;;-9.56;77.37;99525.25;4897506;29;20101;-63
2021/12/03 07:42:32;;;;;;;4.82;4.10;;;;;;;-9.42;77.29;99542.69;4896577;29;20036;-63
2021/12/03 07:44:58;;;;;;;5.47;4.97;;;;;;;-9.34;77.17;99562.97;4880915;29;20065;-63
2021/12/03 07:47:24;;;;;;;5.35;4.85;;;;;;;-9.57;77.40;99515.84;4898398;29;20443;-62
2021/12/03 07:49:51;;;;;;;4.97;4.57;;;;;;;-9.46;77.59;99533.44;4898459;29;20047;-63
2021/12/03 07:52:19;;;;;;;7.20;5.22;;;;;;;-9.63;77.71;99508.38;4897825;29;20101;-61
2021/12/03 07:54:46;;;;;;;5.28;4.82;;;;;;;-9.81;77.94;99494.56;4897859;29;20051;-62
2021/12/03 07:57:11;;;;;;;4.70;4.30;;;;;;;-9.55;78.14;99524.34;4897348;29;20040;-68
2021/12/03 07:59:38;;;;;;;10.37;6.90;;;;;;;-9.45;77.80;99553.97;4897722;29;20563;-65
2021/12/03 08:02:03;;;;;;;4.65;4.25;;;;;;;-9.32;78.27;99554.28;4897477;29;20519;-66
2021/12/03 08:04:30;;;;;;;4.88;4.47;;;;;;;-9.34;77.87;99566.41;4881402;29;20049;-60
2021/12/03 08:06:56;;;;;;;7.10;6.30;;;;;;;-9.43;78.05;99556.50;4882159;29;20047;-68
2021/12/03 08:09:22;;;;;;;7.83;4.50;;;;;;;-9.39;77.59;99568.34;4899369;29;20041;-64
2021/12/03 08:11:49;;;;;;;5.55;5.05;;;;;;;-9.57;77.22;99533.03;4885158;29;20076;-64
2021/12/03 08:14:15;;;;;;;5.13;4.72;;;;;;;-9.61;77.44;99532.34;4903806;29;20040;-64
2021/12/03 08:16:42;;;;;;;5.60;5.10;;;;;;;-9.38;77.59;99565.69;4903966;29;20063;-67
2021/12/03 08:19:07;;;;;;;5.78;5.20;;;;;;;-9.38;78.20;99570.84;4886238;29;20040;-69
2021/12/03 08:21:33;;;;;;;5.90;5.37;;;;;;;-9.30;78.65;99582.56;4904653;29;20044;-67
2021/12/03 08:24:00;;;;;;;6.07;4.83;;;;;;;-9.40;78.38;99562.34;4898374;29;20051;-71
2021/12/03 08:26:27;;;;;;;5.38;4.88;;;;;;;-9.38;78.74;99567.44;4880907;29;20089;-66
2021/12/03 08:28:52;;;;;;;7.13;6.43;;;;;;;-9.28;78.58;99589.31;4899613;29;20047;-69
2021/12/03 08:31:18;;;;;;;5.50;4.87;;;;;;;-9.28;78.90;99591.91;4882610;29;20040;-66
2021/12/03 08:33:44;;;;;;;5.67;5.07;;;;;;;-9.24;78.45;99596.06;4882503;29;20045;-67
2021/12/03 08:36:11;;;;;;;5.85;5.03;;;;;;;-9.25;78.75;99575.47;4883840;29;20069;-65
2021/12/03 08:38:37;;;;;;;5.88;5.28;;;;;;;-9.25;78.23;99563.44;4896719;29;20044;-67
2021/12/03 08:41:03;;;;;;;8.70;5.27;;;;;;;-9.13;78.26;99570.63;4880354;29;20426;-68
2021/12/03 08:43:29;;;;;;;5.95;4.75;;;;;;;-9.01;78.26;99573.53;4897470;29;20048;-68
2021/12/03 08:45:56;;;;;;;5.25;4.70;;;;;;;-9.05;78.06;99562.53;4897224;29;20060;-69
2021/12/03 08:48:26;;;;;;;5.57;4.72;;;;;;;-9.02;78.12;99564.97;4897495;29;20116;-70
2021/12/03 08:51:05;;;;;;;5.65;4.53;;;;;;;-9.01;77.75;99563.22;4895081;29;20040;-66
2021/12/03 08:54:48;;;;;;;5.93;5.32;;;;;;;-8.98;78.49;99566.50;4879787;29;20044;-65
2021/12/03 08:56:22;;;;;;;5.43;4.93;;;;;;;-8.94;77.98;99554.31;4896378;29;20118;-65
2021/12/03 08:58:48;;;;;;;6.20;5.47;;;;;;;-8.94;78.14;99562.91;4897090;29;20131;-69
2021/12/03 09:01:14;;;;;;;6.03;4.87;;;;;;;-8.88;78.31;99559.19;4896650;29;20056;-65
2021/12/03 09:03:40;;;;;;;4.50;4.07;;;;;;;-8.98;77.72;99522.63;4896663;29;20055;-63
2021/12/03 09:06:06;;;;;;;5.47;4.97;;;;;;;-8.73;76.97;99558.47;4896886;29;20048;-63
2021/12/03 09:08:31;;;;;;;5.53;5.03;;;;;;;-8.74;77.81;99538.75;4896927;29;20040;-64
2021/12/03 09:10:57;;;;;;;5.03;4.63;;;;;;;-8.80;77.03;99519.22;4897083;29;20096;-62
2021/12/03 09:13:23;;;;;;;5.43;4.93;;;;;;;-8.66;77.12;99534.06;4897620;29;20037;-65
2021/12/03 09:16:00;;;;;;;6.45;4.82;;;;;;;-8.68;77.00;99522.97;4896447;29;20072;-63
2021/12/03 09:18:37;;;;;;;4.97;4.55;;;;;;;-8.64;76.66;99527.09;4897193;29;20047;-64
2021/12/03 09:26:09;;;;;;;8.40;4.97;;;;;;;-8.64;76.35;99511.59;4896652;29;20064;-64
2021/12/03 09:28:37;;;;;;;5.40;4.90;;;;;;;-8.59;77.25;99499.31;4897486;29;20040;-63
2021/12/03 09:31:04;;;;;;;5.45;4.72;;;;;;;-8.37;76.90;99539.59;4900280;29;20048;-63
2021/12/03 09:33:31;;;;;;;6.20;5.60;;;;;;;-8.37;76.51;99524.09;4900749;29;20045;-65
2021/12/03 09:36:01;;;;;;;5.88;5.18;;;;;;;-8.29;76.16;99538.28;4884057;29;20127;-66
2021/12/03 09:38:31;;;;;;;6.10;5.47;;;;;;;-8.25;76.19;99532.06;4883535;29;20036;-65
2021/12/03 09:41:05;;;;;;;10.43;4.65;;;;;;;-8.23;76.80;99537.13;4900121;29;20048;-65
2021/12/03 09:43:36;;;;;;;5.03;4.53;;;;;;;-8.31;76.32;99508.28;4900305;29;20037;-63
2021/12/03 09:46:19;;;;;;;7.70;5.63;;;;;;;-8.32;76.02;99514.34;4886239;29;20053;-62
2021/12/03 09:51:53;;;;;;;10.63;5.72;;;;;;;-8.20;76.64;99491.34;4881508;29;20097;-64
2021/12/03 10:02:50;;;;;;;12.88;5.07;;;;;;;-8.02;76.58;99489.59;4881082;29;20142;-67
2021/12/03 10:18:51;;;;;;;7.05;3.45;;;;;;;-7.68;74.93;99477.53;4880556;29;20513;-63
2021/12/03 10:27:23;;;;;;;67.80;9.95;;;;;;;-7.48;74.86;99454.06;4880448;29;20044;-68
2021/12/03 10:32:58;;;;;;;4.85;3.38;;;;;;;-7.50;75.15;99453.31;4880674;29;20049;-69
2021/12/03 10:46:14;;;;;;;4.30;3.92;;;;;;;-7.47;75.45;99439.38;4870401;29;20056;-68
2021/12/03 10:54:27;;;;;;;6.50;3.72;;;;;;;-7.27;74.89;99468.41;4898653;29;20051;-65
2021/12/03 10:57:07;;;;;;;6.10;3.78;;;;;;;-7.27;75.12;99460.66;4898661;29;20124;-66
2021/12/03 11:29:12;;;;;;;13.52;5.95;;;;;;;-6.78;76.37;99426.91;4898304;29;20525;-67
2021/12/03 11:41:02;;;;;;;5.20;3.80;;;;;;;-6.78;77.89;99401.03;4897105;29;20038;-66
2021/12/03 14:36:24;;;;;;;15.00;8.65;;;;;;;-5.51;84.14;99347.59;4936973;29;20046;-65
2021/12/03 14:39:37;;;;;;;11.05;7.05;;;;;;;-5.48;83.85;99346.59;4919228;29;20036;-63
2021/12/03 14:45:11;;;;;;;9.45;6.47;;;;;;;-5.41;83.63;99348.72;4922794;29;20040;-69
2021/12/03 14:48:06;;;;;;;10.75;6.97;;;;;;;-5.50;82.84;99328.50;4917471;29;20032;-70
2021/12/03 14:54:58;;;;;;;7.47;5.75;;;;;;;-5.36;83.89;99351.00;4913543;29;20051;-71
2021/12/03 14:59:53;;;;;;;11.57;6.93;;;;;;;-5.62;83.05;99293.81;4919315;29;20134;-74
2021/12/03 15:21:55;;;;;;;8.85;6.63;;;;;;;-5.58;82.29;99322.16;4917931;29;20043;-73
2021/12/03 15:37:07;;;;;;;11.40;7.20;;;;;;;-5.48;81.38;99351.78;4822304;29;20153;-74
2021/12/03 16:03:47;;;;;;;10.00;5.85;;;;;;;-5.74;80.30;99340.44;4916977;29;20040;-68
2021/12/03 16:08:51;;;;;;;6.32;5.25;;;;;;;-5.66;80.11;99370.16;4916486;29;20058;-67
2021/12/03 16:53:30;;;;;;;7.00;5.23;;;;;;;-5.92;79.15;99347.59;4900489;29;20400;-67
2021/12/03 16:58:42;;;;;;;6.38;5.25;;;;;;;-6.06;79.43;99347.63;4917736;29;20036;-64
2021/12/03 17:20:22;;;;;;;6.03;5.05;;;;;;;-5.97;77.86;99360.84;4916513;29;20095;-67
2021/12/03 17:23:37;;;;;;;6.15;5.22;;;;;;;-6.17;78.15;99343.06;4915801;29;20044;-68
2021/12/03 17:53:53;;;;;;;7.32;4.97;;;;;;;-6.17;77.82;99358.63;4902591;29;20040;-66
2021/12/03 18:01:35;;;;;;;7.43;5.43;;;;;;;-6.12;79.10;99379.91;4919213;29;20039;-68
2021/12/03 18:04:22;;;;;;;6.57;5.32;;;;;;;-6.23;78.57;99361.56;4901918;29;20044;-68
2021/12/03 18:57:07;;;;;;;6.55;4.63;;;;;;;-6.12;79.22;99408.41;4917996;29;20127;-65
2021/12/03 18:59:37;;;;;;;7.05;4.70;;;;;;;-6.13;79.67;99409.34;4918283;29;20035;-65
2021/12/03 19:02:06;;;;;;;8.52;4.95;;;;;;;-6.23;79.13;99384.91;4917798;29;20071;-64
2021/12/03 19:04:50;;;;;;;5.27;4.77;;;;;;;-6.05;79.75;99412.31;4917765;29;20535;-65
2021/12/03 19:07:43;;;;;;;6.90;4.72;;;;;;;-6.15;79.03;99398.22;4917751;29;20371;-64
2021/12/03 19:10:09;;;;;;;7.35;4.85;;;;;;;-6.09;79.17;99403.03;4916107;29;20063;-64
2021/12/03 19:12:39;;;;;;;6.15;5.07;;;;;;;-6.06;78.44;99407.22;4918060;29;20449;-62
2021/12/03 19:15:06;;;;;;;5.40;4.85;;;;;;;-6.12;78.90;99392.84;4917995;29;20038;-62
2021/12/03 19:17:36;;;;;;;6.32;4.72;;;;;;;-6.08;78.54;99394.34;4917645;29;20036;-62
2021/12/03 19:20:08;;;;;;;6.13;4.93;;;;;;;-5.90;78.61;99412.31;4917814;29;20081;-63
2021/12/03 19:22:33;;;;;;;8.40;5.43;;;;;;;-6.01;77.40;99390.47;4917257;29;20043;-64
2021/12/03 19:24:59;;;;;;;5.07;4.53;;;;;;;-5.95;77.86;99405.66;4900565;29;20047;-62
2021/12/03 19:27:27;;;;;;;5.50;4.63;;;;;;;-5.97;77.43;99412.69;4917482;29;20043;-62
2021/12/03 19:29:55;;;;;;;6.82;4.75;;;;;;;-5.88;77.86;99431.19;4901248;29;20122;-64
2021/12/03 19:32:26;;;;;;;8.73;5.00;;;;;;;-5.91;77.98;99432.22;4917442;29;20040;-66
2021/12/03 19:34:52;;;;;;;6.95;4.90;;;;;;;-6.01;78.09;99421.59;4897368;29;20032;-64
2021/12/03 19:37:19;;;;;;;6.13;4.78;;;;;;;-5.97;78.63;99423.06;4893885;29;20508;-66